createdAt,value
2017-11-27T00:00:29.876Z,945.14
2017-11-27T00:01:29.867Z,945.15
2017-11-27T00:02:29.862Z,945.17
2017-11-27T00:03:29.853Z,945.12
2017-11-27T00:04:29.847Z,945.11
2017-11-27T00:05:29.839Z,945.14
2017-11-27T00:06:29.834Z,945.17
2017-11-27T00:07:29.831Z,945.12
2017-11-27T00:08:29.820Z,945.15
2017-11-27T00:09:29.813Z,945.16
2017-11-27T00:10:29.833Z,945.17
2017-11-27T00:11:29.803Z,945.13
2017-11-27T00:12:29.794Z,945.14
2017-11-27T00:13:29.791Z,945.12
2017-11-27T00:14:29.784Z,945.13
2017-11-27T00:15:29.772Z,945.10
2017-11-27T00:16:29.769Z,945.11
2017-11-27T00:17:29.758Z,945.05
2017-11-27T00:18:29.751Z,945.07
2017-11-27T00:19:29.745Z,945.07
2017-11-27T00:20:29.738Z,945.06
2017-11-27T00:21:29.729Z,945.01
2017-11-27T00:22:29.723Z,945.03
2017-11-27T00:23:29.717Z,945.05
2017-11-27T00:24:29.712Z,945.02
2017-11-27T00:25:29.703Z,945.00
2017-11-27T00:26:29.696Z,944.94
2017-11-27T00:27:29.689Z,944.99
2017-11-27T00:28:29.684Z,944.97
2017-11-27T00:29:29.678Z,945.00
2017-11-27T00:30:29.669Z,944.95
2017-11-27T00:31:29.663Z,944.96
2017-11-27T00:32:29.657Z,944.97
2017-11-27T00:33:29.648Z,944.95
2017-11-27T00:34:29.644Z,944.91
2017-11-27T00:35:29.635Z,944.92
2017-11-27T00:36:29.631Z,944.86
2017-11-27T00:37:29.622Z,944.88
2017-11-27T00:38:29.616Z,944.88
2017-11-27T00:39:29.609Z,944.88
2017-11-27T00:40:29.609Z,944.91
2017-11-27T00:41:29.601Z,944.96
2017-11-27T00:42:29.590Z,944.94
2017-11-27T00:43:29.633Z,944.95
2017-11-27T00:44:29.577Z,944.94
2017-11-27T00:45:29.569Z,944.95
2017-11-27T00:46:29.562Z,944.97
2017-11-27T00:47:29.555Z,944.99
2017-11-27T00:48:29.549Z,945.02
2017-11-27T00:49:29.542Z,945.02
2017-11-27T00:50:29.536Z,945.07
2017-11-27T00:51:29.529Z,945.01
2017-11-27T00:52:29.523Z,945.02
2017-11-27T00:53:29.515Z,945.02
2017-11-27T00:54:29.558Z,945.03
2017-11-27T00:55:29.504Z,945.01
2017-11-27T00:56:29.495Z,945.05
2017-11-27T00:57:29.487Z,945.09
2017-11-27T00:58:29.481Z,945.01
2017-11-27T00:59:29.476Z,945.08
2017-11-27T01:00:29.469Z,945.08
2017-11-27T01:01:29.460Z,945.03
2017-11-27T01:02:29.458Z,945.03
2017-11-27T01:03:29.446Z,945.06
2017-11-27T01:04:29.439Z,945.08
2017-11-27T01:05:29.432Z,945.14
2017-11-27T01:06:29.427Z,945.12
2017-11-27T01:07:29.420Z,945.07
2017-11-27T01:08:29.417Z,945.10
2017-11-27T01:09:29.456Z,945.10
2017-11-27T01:10:29.399Z,945.10
2017-11-27T01:11:29.392Z,945.10
2017-11-27T01:12:29.389Z,945.10
2017-11-27T01:13:29.378Z,945.15
2017-11-27T01:14:29.371Z,945.11
2017-11-27T01:15:29.365Z,945.19
2017-11-27T01:16:29.357Z,945.21
2017-11-27T01:17:29.351Z,945.16
2017-11-27T01:18:29.344Z,945.16
2017-11-27T01:19:29.341Z,945.19
2017-11-27T01:20:29.329Z,945.15
2017-11-27T01:21:29.323Z,945.13
2017-11-27T01:22:29.316Z,945.14
2017-11-27T01:23:29.311Z,945.18
2017-11-27T01:24:29.355Z,945.17
2017-11-27T01:25:29.295Z,945.12
2017-11-27T01:26:29.289Z,945.15
2017-11-27T01:27:29.282Z,945.14
2017-11-27T01:28:29.276Z,945.20
2017-11-27T01:29:29.266Z,945.14
2017-11-27T01:30:29.260Z,945.17
2017-11-27T01:31:29.254Z,945.19
2017-11-27T01:32:29.247Z,945.23
2017-11-27T01:33:29.238Z,945.19
2017-11-27T01:34:29.233Z,945.18
2017-11-27T01:35:29.224Z,945.25
2017-11-27T01:36:29.221Z,945.20
2017-11-27T01:37:29.210Z,945.19
2017-11-27T01:38:29.203Z,945.18
2017-11-27T01:39:29.196Z,945.27
2017-11-27T01:40:29.189Z,945.25
2017-11-27T01:41:29.184Z,945.24
2017-11-27T01:42:29.174Z,945.17
2017-11-27T01:43:29.168Z,945.28
2017-11-27T01:44:29.161Z,945.25
2017-11-27T01:45:29.153Z,945.27
2017-11-27T01:46:29.145Z,945.32
2017-11-27T01:47:29.141Z,945.31
2017-11-27T01:48:29.133Z,945.33
2017-11-27T01:49:29.126Z,945.30
2017-11-27T01:50:29.119Z,945.28
2017-11-27T01:51:29.111Z,945.29
2017-11-27T01:52:29.106Z,945.25
2017-11-27T01:53:29.098Z,945.22
2017-11-27T01:54:29.090Z,945.16
2017-11-27T01:55:29.082Z,945.13
2017-11-27T01:56:29.076Z,945.21
2017-11-27T01:57:29.069Z,945.15
2017-11-27T01:58:29.065Z,945.17
2017-11-27T01:59:29.056Z,945.11
2017-11-27T02:00:29.049Z,945.10
2017-11-27T02:01:29.044Z,945.07
2017-11-27T02:02:29.034Z,945.06
2017-11-27T02:03:29.026Z,945.13
2017-11-27T02:04:29.018Z,945.06
2017-11-27T02:05:29.012Z,945.08
2017-11-27T02:06:29.004Z,945.08
2017-11-27T02:07:28.997Z,945.11
2017-11-27T02:08:28.990Z,945.07
2017-11-27T02:09:28.983Z,945.10
2017-11-27T02:10:28.974Z,945.04
2017-11-27T02:11:28.970Z,945.07
2017-11-27T02:12:28.961Z,945.11
2017-11-27T02:13:28.954Z,945.10
2017-11-27T02:14:28.946Z,945.06
2017-11-27T02:15:28.943Z,945.08
2017-11-27T02:16:28.933Z,945.08
2017-11-27T02:17:28.925Z,945.16
2017-11-27T02:18:28.917Z,945.16
2017-11-27T02:19:28.911Z,945.16
2017-11-27T02:20:28.906Z,945.12
2017-11-27T02:21:28.898Z,945.17
2017-11-27T02:22:28.888Z,945.20
2017-11-27T02:23:28.882Z,945.12
2017-11-27T02:24:28.876Z,945.19
2017-11-27T02:25:28.867Z,945.18
2017-11-27T02:26:28.861Z,945.24
2017-11-27T02:27:28.854Z,945.27
2017-11-27T02:28:28.845Z,945.27
2017-11-27T02:29:28.839Z,945.29
2017-11-27T02:30:28.835Z,945.27
2017-11-27T02:31:28.826Z,945.29
2017-11-27T02:32:28.820Z,945.29
2017-11-27T02:33:28.810Z,945.32
2017-11-27T02:34:28.804Z,945.31
2017-11-27T02:35:28.798Z,945.33
2017-11-27T02:36:28.790Z,945.32
2017-11-27T02:37:28.788Z,945.31
2017-11-27T02:38:28.776Z,945.32
2017-11-27T02:39:28.769Z,945.30
2017-11-27T02:40:28.763Z,945.31
2017-11-27T02:41:28.758Z,945.36
2017-11-27T02:42:28.749Z,945.35
2017-11-27T02:43:28.740Z,945.35
2017-11-27T02:44:28.788Z,945.34
2017-11-27T02:45:28.729Z,945.36
2017-11-27T02:46:28.720Z,945.30
2017-11-27T02:47:28.712Z,945.32
2017-11-27T02:48:28.706Z,945.35
2017-11-27T02:49:28.700Z,945.30
2017-11-27T02:50:28.692Z,945.36
2017-11-27T02:51:28.684Z,945.36
2017-11-27T02:52:28.728Z,945.34
2017-11-27T02:53:28.671Z,945.42
2017-11-27T02:54:28.665Z,945.42
2017-11-27T02:55:28.659Z,945.44
2017-11-27T02:56:28.650Z,945.42
2017-11-27T02:57:28.645Z,945.42
2017-11-27T02:58:28.637Z,945.40
2017-11-27T02:59:28.630Z,945.40
2017-11-27T03:00:28.624Z,945.39
2017-11-27T03:01:28.616Z,945.46
2017-11-27T03:02:28.609Z,945.48
2017-11-27T03:03:28.603Z,945.50
2017-11-27T03:04:28.602Z,945.54
2017-11-27T03:05:28.590Z,945.53
2017-11-27T03:06:28.583Z,945.49
2017-11-27T03:07:28.576Z,945.48
2017-11-27T03:08:28.570Z,945.47
2017-11-27T03:09:28.562Z,945.49
2017-11-27T03:10:28.555Z,945.42
2017-11-27T03:11:28.598Z,945.44
2017-11-27T03:12:28.544Z,945.44
2017-11-27T03:13:28.534Z,945.43
2017-11-27T03:14:28.529Z,945.41
2017-11-27T03:15:28.522Z,945.43
2017-11-27T03:16:28.515Z,945.40
2017-11-27T03:17:28.510Z,945.39
2017-11-27T03:18:28.501Z,945.38
2017-11-27T03:19:28.493Z,945.32
2017-11-27T03:20:28.489Z,945.31
2017-11-27T03:21:28.480Z,945.35
2017-11-27T03:22:28.474Z,945.36
2017-11-27T03:23:28.468Z,945.37
2017-11-27T03:24:28.464Z,945.38
2017-11-27T03:25:28.454Z,945.34
2017-11-27T03:26:28.447Z,945.32
2017-11-27T03:27:28.441Z,945.31
2017-11-27T03:28:28.437Z,945.32
2017-11-27T03:29:28.427Z,945.34
2017-11-27T03:30:28.421Z,945.32
2017-11-27T03:31:28.414Z,945.31
2017-11-27T03:32:28.409Z,945.31
2017-11-27T03:33:28.400Z,945.29
2017-11-27T03:34:28.393Z,945.31
2017-11-27T03:35:28.388Z,945.33
2017-11-27T03:36:28.380Z,945.31
2017-11-27T03:37:28.374Z,945.35
2017-11-27T03:38:28.368Z,945.34
2017-11-27T03:39:28.359Z,945.38
2017-11-27T03:40:28.354Z,945.35
2017-11-27T03:41:28.351Z,945.39
2017-11-27T03:42:28.340Z,945.35
2017-11-27T03:43:28.335Z,945.33
2017-11-27T03:44:28.327Z,945.32
2017-11-27T03:45:28.322Z,945.35
2017-11-27T03:46:28.314Z,945.32
2017-11-27T03:47:28.306Z,945.35
2017-11-27T03:48:28.300Z,945.31
2017-11-27T03:49:28.294Z,945.36
2017-11-27T03:50:28.290Z,945.33
2017-11-27T03:51:28.279Z,945.36
2017-11-27T03:52:28.272Z,945.34
2017-11-27T03:53:28.265Z,945.36
2017-11-27T03:54:28.259Z,945.36
2017-11-27T03:55:28.303Z,945.33
2017-11-27T03:56:28.245Z,945.38
2017-11-27T03:57:28.238Z,945.35
2017-11-27T03:58:28.232Z,945.31
2017-11-27T03:59:28.274Z,945.35
2017-11-27T04:00:28.217Z,945.33
2017-11-27T04:01:28.208Z,945.34
2017-11-27T04:02:28.204Z,945.30
2017-11-27T04:03:28.196Z,945.33
2017-11-27T04:04:28.188Z,945.32
2017-11-27T04:05:28.188Z,945.30
2017-11-27T04:06:28.175Z,945.33
2017-11-27T04:07:28.168Z,945.33
2017-11-27T04:08:28.161Z,945.33
2017-11-27T04:09:28.153Z,945.35
2017-11-27T04:10:28.146Z,945.37
2017-11-27T04:11:28.139Z,945.42
2017-11-27T04:12:28.132Z,945.42
2017-11-27T04:13:28.125Z,945.45
2017-11-27T04:14:28.118Z,945.48
2017-11-27T04:15:28.112Z,945.42
2017-11-27T04:16:28.104Z,945.40
2017-11-27T04:17:28.101Z,945.46
2017-11-27T04:18:28.090Z,945.36
2017-11-27T04:19:28.083Z,945.34
2017-11-27T04:20:28.076Z,945.35
2017-11-27T04:21:28.070Z,945.33
2017-11-27T04:22:28.062Z,945.39
2017-11-27T04:23:28.056Z,945.33
2017-11-27T04:24:28.048Z,945.38
2017-11-27T04:25:28.041Z,945.40
2017-11-27T04:26:28.034Z,945.40
2017-11-27T04:27:28.026Z,945.38
2017-11-27T04:28:28.025Z,945.36
2017-11-27T04:29:28.012Z,945.33
2017-11-27T04:30:28.011Z,945.36
2017-11-27T04:31:28.001Z,945.32
2017-11-27T04:32:27.992Z,945.35
2017-11-27T04:33:28.005Z,945.30
2017-11-27T04:34:27.979Z,945.29
2017-11-27T04:35:27.970Z,945.29
2017-11-27T04:36:27.965Z,945.27
2017-11-27T04:37:27.957Z,945.22
2017-11-27T04:38:27.953Z,945.24
2017-11-27T04:39:27.944Z,945.26
2017-11-27T04:40:27.942Z,945.26
2017-11-27T04:41:27.930Z,945.23
2017-11-27T04:42:27.939Z,945.26
2017-11-27T04:43:27.915Z,945.27
2017-11-27T04:44:27.909Z,945.32
2017-11-27T04:45:27.902Z,945.26
2017-11-27T04:46:27.896Z,945.27
2017-11-27T04:47:27.888Z,945.23
2017-11-27T04:48:27.883Z,945.26
2017-11-27T04:49:27.874Z,945.22
2017-11-27T04:50:27.867Z,945.22
2017-11-27T04:51:27.860Z,945.25
2017-11-27T04:52:27.857Z,945.22
2017-11-27T04:53:27.847Z,945.19
2017-11-27T04:54:27.839Z,945.19
2017-11-27T04:55:27.833Z,945.20
2017-11-27T04:56:27.837Z,945.19
2017-11-27T04:57:27.827Z,945.17
2017-11-27T04:59:27.810Z,945.11
2017-11-27T05:00:27.800Z,945.11
2017-11-27T05:01:27.792Z,945.07
2017-11-27T05:02:27.785Z,945.08
2017-11-27T05:03:27.777Z,945.10
2017-11-27T05:04:27.772Z,945.16
2017-11-27T05:05:27.764Z,945.18
2017-11-27T05:06:27.757Z,945.17
2017-11-27T05:07:27.750Z,945.13
2017-11-27T05:08:27.744Z,945.16
2017-11-27T05:09:27.736Z,945.11
2017-11-27T05:10:27.729Z,945.11
2017-11-27T05:11:27.723Z,945.12
2017-11-27T05:12:27.715Z,945.13
2017-11-27T05:13:27.708Z,945.13
2017-11-27T05:14:27.700Z,945.11
2017-11-27T05:15:27.697Z,945.12
2017-11-27T05:16:27.688Z,945.11
2017-11-27T05:17:27.682Z,945.11
2017-11-27T05:18:27.673Z,945.12
2017-11-27T05:19:27.667Z,945.14
2017-11-27T05:20:27.661Z,945.21
2017-11-27T05:21:27.651Z,945.23
2017-11-27T05:22:27.647Z,945.20
2017-11-27T05:23:27.646Z,945.17
2017-11-27T05:24:27.632Z,945.23
2017-11-27T05:25:27.626Z,945.23
2017-11-27T05:26:27.669Z,945.22
2017-11-27T05:27:27.620Z,945.21
2017-11-27T05:28:27.605Z,945.17
2017-11-27T05:29:27.598Z,945.22
2017-11-27T05:30:27.592Z,945.20
2017-11-27T05:31:27.585Z,945.22
2017-11-27T05:32:27.579Z,945.24
2017-11-27T05:33:27.571Z,945.28
2017-11-27T05:34:27.564Z,945.24
2017-11-27T05:35:27.572Z,945.24
2017-11-27T05:36:27.556Z,945.18
2017-11-27T05:37:27.542Z,945.20
2017-11-27T05:38:27.535Z,945.21
2017-11-27T05:39:27.529Z,945.17
2017-11-27T05:40:27.523Z,945.14
2017-11-27T05:41:27.515Z,945.16
2017-11-27T05:42:27.507Z,945.20
2017-11-27T05:43:27.501Z,945.17
2017-11-27T05:44:27.544Z,945.08
2017-11-27T05:45:27.492Z,945.13
2017-11-27T05:46:27.479Z,945.14
2017-11-27T05:47:27.473Z,945.11
2017-11-27T05:48:27.471Z,945.14
2017-11-27T05:49:27.457Z,945.10
2017-11-27T05:50:27.502Z,945.09
2017-11-27T05:51:27.444Z,945.04
2017-11-27T05:52:27.439Z,945.05
2017-11-27T05:53:27.432Z,945.06
2017-11-27T05:54:27.424Z,945.04
2017-11-27T05:55:27.416Z,945.05
2017-11-27T05:56:27.410Z,945.03
2017-11-27T05:57:27.408Z,945.02
2017-11-27T05:58:27.395Z,945.00
2017-11-27T05:59:27.399Z,945.07
2017-11-27T06:00:27.381Z,945.04
2017-11-27T06:01:27.374Z,945.06
2017-11-27T06:02:27.417Z,945.07
2017-11-27T06:03:27.360Z,945.09
2017-11-27T06:04:27.354Z,945.01
2017-11-27T06:05:27.346Z,944.98
2017-11-27T06:06:27.389Z,944.96
2017-11-27T06:07:27.331Z,945.00
2017-11-27T06:08:27.327Z,944.99
2017-11-27T06:09:27.319Z,944.97
2017-11-27T06:10:27.390Z,944.93
2017-11-27T06:11:27.306Z,944.92
2017-11-27T06:12:27.298Z,944.96
2017-11-27T06:13:27.289Z,944.97
2017-11-27T06:14:27.333Z,944.93
2017-11-27T06:15:27.278Z,944.96
2017-11-27T06:16:27.272Z,944.93
2017-11-27T06:17:27.263Z,944.90
2017-11-27T06:18:27.305Z,944.87
2017-11-27T06:19:27.249Z,944.86
2017-11-27T06:20:27.242Z,944.92
2017-11-27T06:21:27.234Z,944.90
2017-11-27T06:22:27.229Z,944.90
2017-11-27T06:23:27.220Z,944.88
2017-11-27T06:24:27.237Z,944.91
2017-11-27T06:25:27.206Z,944.91
2017-11-27T06:26:27.250Z,944.91
2017-11-27T06:27:27.196Z,944.91
2017-11-27T06:28:27.187Z,944.91
2017-11-27T06:29:27.178Z,944.89
2017-11-27T06:30:27.172Z,944.97
2017-11-27T06:31:27.170Z,944.91
2017-11-27T06:32:27.159Z,944.95
2017-11-27T06:33:27.150Z,944.92
2017-11-27T06:34:27.145Z,944.91
2017-11-27T06:35:27.138Z,944.89
2017-11-27T06:36:27.131Z,944.93
2017-11-27T06:37:27.122Z,944.95
2017-11-27T06:38:27.116Z,944.90
2017-11-27T06:39:27.110Z,944.92
2017-11-27T06:40:27.102Z,944.95
2017-11-27T06:41:27.094Z,944.92
2017-11-27T06:42:27.088Z,944.89
2017-11-27T06:43:27.083Z,944.92
2017-11-27T06:44:27.075Z,944.91
2017-11-27T06:45:27.084Z,944.93
2017-11-27T06:46:27.059Z,944.90
2017-11-27T06:47:27.083Z,944.94
2017-11-27T06:48:27.047Z,944.94
2017-11-27T06:49:27.039Z,944.98
2017-11-27T06:50:27.033Z,944.94
2017-11-27T06:51:27.026Z,944.95
2017-11-27T06:52:27.019Z,944.97
2017-11-27T06:53:27.012Z,944.97
2017-11-27T06:54:27.007Z,944.96
2017-11-27T06:55:26.998Z,944.97
2017-11-27T06:56:26.991Z,945.01
2017-11-27T06:57:26.984Z,944.95
2017-11-27T06:58:26.987Z,944.96
2017-11-27T06:59:26.970Z,944.99
2017-11-27T07:00:26.963Z,944.96
2017-11-27T07:01:26.964Z,944.97
2017-11-27T07:02:26.949Z,944.94
2017-11-27T07:03:26.943Z,944.95
2017-11-27T07:04:26.937Z,945.01
2017-11-27T07:05:26.929Z,944.97
2017-11-27T07:06:26.922Z,944.96
2017-11-27T07:07:26.914Z,944.95
2017-11-27T07:08:26.908Z,945.01
2017-11-27T07:09:26.900Z,945.05
2017-11-27T07:10:26.894Z,945.08
2017-11-27T07:11:26.887Z,945.08
2017-11-27T07:12:26.881Z,945.09
2017-11-27T07:13:26.873Z,945.11
2017-11-27T07:14:26.865Z,945.04
2017-11-27T07:15:26.860Z,944.99
2017-11-27T07:16:26.853Z,944.96
2017-11-27T07:17:26.845Z,944.94
2017-11-27T07:18:26.839Z,944.96
2017-11-27T07:19:26.833Z,944.97
2017-11-27T07:20:26.826Z,944.99
2017-11-27T07:21:26.868Z,944.97
2017-11-27T07:22:26.811Z,944.99
2017-11-27T07:23:26.805Z,944.99
2017-11-27T07:24:26.800Z,945.04
2017-11-27T07:25:26.790Z,945.08
2017-11-27T07:26:26.785Z,945.04
2017-11-27T07:27:26.792Z,944.98
2017-11-27T07:28:26.771Z,945.03
2017-11-27T07:29:26.776Z,945.07
2017-11-27T07:30:26.757Z,945.13
2017-11-27T07:31:26.751Z,945.11
2017-11-27T07:32:26.745Z,945.06
2017-11-27T07:33:26.738Z,945.07
2017-11-27T07:34:26.733Z,945.03
2017-11-27T07:35:26.725Z,944.98
2017-11-27T07:36:26.716Z,945.07
2017-11-27T07:37:26.709Z,945.07
2017-11-27T07:38:26.702Z,945.09
2017-11-27T07:39:26.696Z,945.10
2017-11-27T07:40:26.693Z,945.06
2017-11-27T07:41:26.682Z,945.08
2017-11-27T07:42:26.676Z,945.09
2017-11-27T07:43:26.669Z,945.08
2017-11-27T07:44:26.663Z,945.08
2017-11-27T07:45:26.656Z,945.09
2017-11-27T07:46:26.650Z,945.10
2017-11-27T07:47:26.645Z,945.09
2017-11-27T07:48:26.636Z,945.08
2017-11-27T07:49:26.639Z,945.12
2017-11-27T07:50:26.625Z,945.11
2017-11-27T07:51:26.617Z,945.09
2017-11-27T07:52:26.611Z,945.14
2017-11-27T07:53:26.602Z,945.14
2017-11-27T07:54:26.596Z,945.08
2017-11-27T07:55:26.591Z,945.12
2017-11-27T07:56:26.584Z,945.12
2017-11-27T07:57:26.576Z,945.13
2017-11-27T07:58:26.578Z,945.15
2017-11-27T07:59:26.568Z,945.15
2017-11-27T08:00:26.560Z,945.14
2017-11-27T08:01:26.555Z,945.17
2017-11-27T08:02:26.547Z,945.13
2017-11-27T08:03:26.537Z,945.12
2017-11-27T08:04:26.532Z,945.17
2017-11-27T08:05:26.524Z,945.14
2017-11-27T08:06:26.518Z,945.17
2017-11-27T08:07:26.510Z,945.23
2017-11-27T08:08:26.504Z,945.26
2017-11-27T08:09:26.495Z,945.22
2017-11-27T08:10:26.496Z,945.20
2017-11-27T08:11:26.483Z,945.23
2017-11-27T08:12:26.475Z,945.19
2017-11-27T08:13:26.468Z,945.22
2017-11-27T08:14:26.462Z,945.21
2017-11-27T08:15:26.456Z,945.20
2017-11-27T08:16:26.449Z,945.23
2017-11-27T08:17:26.442Z,945.25
2017-11-27T08:18:26.436Z,945.26
2017-11-27T08:19:26.430Z,945.25
2017-11-27T08:20:26.424Z,945.27
2017-11-27T08:21:26.416Z,945.21
2017-11-27T08:22:26.411Z,945.25
2017-11-27T08:23:26.404Z,945.26
2017-11-27T08:24:26.397Z,945.25
2017-11-27T08:25:26.391Z,945.26
2017-11-27T08:26:26.385Z,945.23
2017-11-27T08:27:26.379Z,945.28
2017-11-27T08:28:26.402Z,945.25
2017-11-27T08:29:26.365Z,945.29
2017-11-27T08:30:26.366Z,945.26
2017-11-27T08:31:26.353Z,945.30
2017-11-27T08:32:26.347Z,945.27
2017-11-27T08:33:26.341Z,945.31
2017-11-27T08:34:26.333Z,945.25
2017-11-27T08:35:26.329Z,945.27
2017-11-27T08:36:26.330Z,945.29
2017-11-27T08:37:26.316Z,945.24
2017-11-27T08:38:26.309Z,945.26
2017-11-27T08:39:26.303Z,945.28
2017-11-27T08:40:26.299Z,945.31
2017-11-27T08:41:26.292Z,945.28
2017-11-27T08:42:26.286Z,945.23
2017-11-27T08:43:26.282Z,945.31
2017-11-27T08:44:26.275Z,945.27
2017-11-27T08:45:26.268Z,945.25
2017-11-27T08:46:26.263Z,945.28
2017-11-27T08:47:26.257Z,945.23
2017-11-27T08:48:26.252Z,945.20
2017-11-27T08:49:26.244Z,945.20
2017-11-27T08:50:26.239Z,945.19
2017-11-27T08:51:26.234Z,945.18
2017-11-27T08:52:26.236Z,945.19
2017-11-27T08:53:26.225Z,945.15
2017-11-27T08:54:26.225Z,945.19
2017-11-27T08:55:26.214Z,945.20
2017-11-27T08:56:26.209Z,945.23
2017-11-27T08:57:26.203Z,945.19
2017-11-27T08:58:26.199Z,945.19
2017-11-27T08:59:26.195Z,945.19
2017-11-27T09:00:26.197Z,945.18
2017-11-27T09:01:26.183Z,945.18
2017-11-27T09:02:26.228Z,945.17
2017-11-27T09:03:26.173Z,945.19
2017-11-27T09:04:26.168Z,945.09
2017-11-27T09:05:26.162Z,945.11
2017-11-27T09:06:26.158Z,945.10
2017-11-27T09:07:26.204Z,945.07
2017-11-27T09:08:26.148Z,945.11
2017-11-27T09:09:26.142Z,945.10
2017-11-27T09:10:26.138Z,945.11
2017-11-27T09:11:26.133Z,945.09
2017-11-27T09:12:26.126Z,945.07
2017-11-27T09:13:26.137Z,945.05
2017-11-27T09:14:26.119Z,945.10
2017-11-27T09:15:26.119Z,945.13
2017-11-27T09:16:26.128Z,945.13
2017-11-27T09:17:26.102Z,945.12
2017-11-27T09:18:26.097Z,945.07
2017-11-27T09:19:26.093Z,945.06
2017-11-27T09:20:26.088Z,945.02
2017-11-27T09:21:26.082Z,945.05
2017-11-27T09:22:26.078Z,945.04
2017-11-27T09:23:26.074Z,945.02
2017-11-27T09:24:26.069Z,945.02
2017-11-27T09:25:26.064Z,945.02
2017-11-27T09:26:26.058Z,945.00
2017-11-27T09:27:26.055Z,945.08
2017-11-27T09:28:26.050Z,945.05
2017-11-27T09:29:26.102Z,945.05
2017-11-27T09:30:26.040Z,945.05
2017-11-27T09:31:26.085Z,945.07
2017-11-27T09:32:26.031Z,945.03
2017-11-27T09:33:26.025Z,945.00
2017-11-27T09:34:26.020Z,945.03
2017-11-27T09:35:26.015Z,945.05
2017-11-27T09:36:26.011Z,944.98
2017-11-27T09:37:26.006Z,944.96
2017-11-27T09:38:26.006Z,945.00
2017-11-27T09:39:25.996Z,944.97
2017-11-27T09:40:25.992Z,944.97
2017-11-27T09:41:25.988Z,944.98
2017-11-27T09:42:25.989Z,944.95
2017-11-27T09:43:25.978Z,944.94
2017-11-27T09:44:25.978Z,944.92
2017-11-27T09:45:25.967Z,945.00
2017-11-27T09:46:25.970Z,944.94
2017-11-27T09:47:25.959Z,944.95
2017-11-27T09:48:25.965Z,944.99
2017-11-27T09:49:25.960Z,944.93
2017-11-27T09:50:25.953Z,944.90
2017-11-27T09:51:25.941Z,944.87
2017-11-27T09:52:25.939Z,944.89
2017-11-27T09:53:25.931Z,944.85
2017-11-27T09:54:25.928Z,944.86
2017-11-27T09:55:25.923Z,944.89
2017-11-27T09:56:25.920Z,944.88
2017-11-27T09:57:25.913Z,944.84
2017-11-27T09:58:25.910Z,944.78
2017-11-27T09:59:25.906Z,944.80
2017-11-27T10:00:25.902Z,944.72
2017-11-27T10:01:25.897Z,944.71
2017-11-27T10:02:25.892Z,944.71
2017-11-27T10:03:25.892Z,944.70
2017-11-27T10:04:25.887Z,944.65
2017-11-27T10:05:25.878Z,944.63
2017-11-27T10:06:25.875Z,944.61
2017-11-27T10:07:25.869Z,944.62
2017-11-27T10:08:25.866Z,944.56
2017-11-27T10:09:25.863Z,944.56
2017-11-27T10:10:25.857Z,944.57
2017-11-27T10:11:25.852Z,944.53
2017-11-27T10:14:49.871Z,944.37
2017-11-27T10:15:49.866Z,944.42
2017-11-27T10:16:49.861Z,944.37
2017-11-27T10:17:49.879Z,944.33
2017-11-27T10:18:49.852Z,944.32
2017-11-27T10:19:49.847Z,944.29
2017-11-27T10:20:49.854Z,944.30
2017-11-27T10:23:58.436Z,944.31
2017-11-27T10:24:58.430Z,944.30
2017-11-27T10:25:58.426Z,944.22
2017-11-27T10:29:34.597Z,944.17
2017-11-27T10:30:34.592Z,944.15
2017-11-27T10:31:34.589Z,944.12
2017-11-27T10:32:34.584Z,944.09
2017-11-27T10:33:34.577Z,944.15
2017-11-27T10:36:24.633Z,944.19
2017-11-27T10:37:24.630Z,944.09
2017-11-27T10:38:24.625Z,944.05
2017-11-27T10:39:24.623Z,944.07
2017-11-27T10:42:18.234Z,944.08
2017-11-27T10:43:18.228Z,944.07
2017-11-27T10:44:18.227Z,944.01
2017-11-27T10:45:18.220Z,943.99
2017-11-27T10:46:18.225Z,944.02
2017-11-27T10:50:18.202Z,944.05
2017-11-27T10:51:18.199Z,943.96
2017-11-27T10:52:18.197Z,943.92
2017-11-27T10:53:18.192Z,943.92
2017-11-27T10:54:18.188Z,943.92
2017-11-27T10:57:12.605Z,943.89
2017-11-27T10:58:12.600Z,943.82
2017-11-27T10:59:12.606Z,943.81
2017-11-27T11:00:12.595Z,943.81
2017-11-27T11:01:12.591Z,943.81
2017-11-27T11:02:12.588Z,943.75
2017-11-27T11:05:16.622Z,943.78
2017-11-27T11:06:16.621Z,943.75
2017-11-27T11:07:16.614Z,943.72
2017-11-27T11:08:16.612Z,943.68
2017-11-27T11:11:55.796Z,943.66
2017-11-27T11:12:55.793Z,943.62
2017-11-27T11:13:55.790Z,943.66
2017-11-27T11:14:55.785Z,943.66
2017-11-27T11:15:55.783Z,943.64
2017-11-27T11:16:55.779Z,943.63
2017-11-27T11:17:55.774Z,943.57
2017-11-27T11:18:55.772Z,943.57
2017-11-27T11:22:30.445Z,943.55
2017-11-27T11:23:30.438Z,943.57
2017-11-27T11:24:30.436Z,943.51
2017-11-27T11:25:30.431Z,943.54
2017-11-27T11:26:30.428Z,943.50
2017-11-27T11:27:30.429Z,943.50
2017-11-27T11:28:30.421Z,943.44
2017-11-27T11:29:30.451Z,943.45
2017-11-27T11:32:39.613Z,943.44
2017-11-27T11:33:39.608Z,943.43
2017-11-27T11:34:39.604Z,943.41
2017-11-27T11:35:39.602Z,943.37
2017-11-27T11:36:39.597Z,943.35
2017-11-27T11:39:54.101Z,943.33
2017-11-27T11:40:54.096Z,943.33
2017-11-27T11:41:54.093Z,943.32
2017-11-27T11:42:54.087Z,943.31
2017-11-27T11:43:54.089Z,943.29
2017-11-27T11:46:59.070Z,943.27
2017-11-27T11:47:59.067Z,943.23
2017-11-27T11:48:59.063Z,943.22
2017-11-27T11:49:59.059Z,943.17
2017-11-27T11:50:59.056Z,943.18
2017-11-27T11:51:59.051Z,943.21
2017-11-27T11:55:27.980Z,943.15
2017-11-27T11:56:27.978Z,943.16
2017-11-27T11:57:27.977Z,943.15
2017-11-27T11:58:27.973Z,943.16
2017-11-27T11:59:27.968Z,943.12
2017-11-27T12:02:12.068Z,943.08
2017-11-27T12:03:12.066Z,943.11
2017-11-27T12:04:12.063Z,943.11
2017-11-27T12:05:12.059Z,943.05
2017-11-27T12:06:12.060Z,943.03
2017-11-27T12:08:56.456Z,942.98
2017-11-27T12:09:56.455Z,943.01
2017-11-27T12:10:56.453Z,943.03
2017-11-27T12:11:56.450Z,943.00
2017-11-27T12:12:56.448Z,942.98
2017-11-27T12:13:56.445Z,942.97
2017-11-27T12:14:56.444Z,942.99
2017-11-27T12:15:56.443Z,942.98
2017-11-27T12:16:56.442Z,942.96
2017-11-27T12:17:56.441Z,942.91
2017-11-27T12:18:56.440Z,942.91
2017-11-27T12:21:56.077Z,942.93
2017-11-27T12:22:56.075Z,942.90
2017-11-27T12:23:56.076Z,942.89
2017-11-27T12:24:56.074Z,942.92
2017-11-27T12:28:31.010Z,942.81
2017-11-27T12:29:31.011Z,942.81
2017-11-27T12:30:31.010Z,942.80
2017-11-27T12:31:31.009Z,942.72
2017-11-27T12:32:31.011Z,942.71
2017-11-27T12:35:25.591Z,942.64
2017-11-27T12:36:25.591Z,942.61
2017-11-27T12:37:25.592Z,942.58
2017-11-27T12:38:25.593Z,942.56
2017-11-27T12:41:29.390Z,942.55
2017-11-27T12:42:29.393Z,942.56
2017-11-27T12:43:29.392Z,942.55
2017-11-27T12:44:29.393Z,942.53
2017-11-27T12:47:38.051Z,942.42
2017-11-27T12:48:38.059Z,942.42
2017-11-27T12:49:38.050Z,942.40
2017-11-27T12:50:38.051Z,942.35
2017-11-27T12:53:32.579Z,942.34
2017-11-27T12:54:32.579Z,942.39
2017-11-27T12:55:32.579Z,942.38
2017-11-27T12:58:33.117Z,942.27
2017-11-27T12:59:33.118Z,942.29
2017-11-27T13:00:33.120Z,942.29
2017-11-27T13:01:33.117Z,942.25
2017-11-27T13:04:47.434Z,942.25
2017-11-27T13:05:47.435Z,942.21
2017-11-27T13:06:47.437Z,942.25
2017-11-27T13:07:47.436Z,942.22
2017-11-27T13:11:07.514Z,942.22
2017-11-27T13:12:07.517Z,942.18
2017-11-27T13:13:07.517Z,942.16
2017-11-27T13:14:07.517Z,942.14
2017-11-27T13:17:26.095Z,942.10
2017-11-27T13:18:26.096Z,942.09
2017-11-27T13:19:26.097Z,942.05
2017-11-27T13:20:26.100Z,942.07
2017-11-27T13:21:26.098Z,942.02
2017-11-27T13:24:40.019Z,941.98
2017-11-27T13:25:40.042Z,941.96
2017-11-27T13:26:40.022Z,941.92
2017-11-27T13:27:40.023Z,941.90
2017-11-27T13:28:40.029Z,941.92